Time;durP1;ratioP1;P1;durP2;ratioP2;P2;SDS_P1;SDS_P2;PMS_P1;PMS_P2;Temp;Humidity;BMP_temperature;BMP_pressure;BME280_temperature;BME280_humidity;BME280_pressure;Samples;Min_cycle;Max_cycle;Signal;HPM_P1;HPM_P2
2022/08/27 00:00:12;;;;;;;10.82;1.50;;;21.10;99.90;;;;;;4914541;29;20023;-91
2022/08/27 00:02:38;;;;;;;5.65;1.50;;;21.00;99.90;;;;;;4914704;29;20532;-90
2022/08/27 00:05:04;;;;;;;7.20;1.50;;;21.00;99.90;;;;;;4883923;29;20052;-91
2022/08/27 00:07:30;;;;;;;2.20;1.40;;;20.90;99.90;;;;;;4889798;29;20051;-91
2022/08/27 00:09:58;;;;;;;2.30;1.20;;;20.90;99.90;;;;;;4908790;29;20466;-92
2022/08/27 00:12:24;;;;;;;4.13;1.30;;;20.90;99.90;;;;;;4914159;29;20047;-91
2022/08/27 00:14:50;;;;;;;2.22;1.20;;;20.90;99.90;;;;;;4914417;29;20032;-90
2022/08/27 00:17:18;;;;;;;3.33;1.60;;;20.90;99.90;;;;;;4914549;29;20035;-91
2022/08/27 00:19:44;;;;;;;3.22;1.58;;;20.90;99.90;;;;;;4914437;29;20035;-91
2022/08/27 00:22:11;;;;;;;2.95;1.15;;;20.80;99.90;;;;;;4897211;29;20036;-90
2022/08/27 00:24:37;;;;;;;5.07;1.52;;;20.80;99.90;;;;;;4914227;29;20059;-91
2022/08/27 00:27:03;;;;;;;5.30;1.60;;;20.70;99.90;;;;;;4913554;29;20492;-90
2022/08/27 00:29:29;;;;;;;2.58;1.20;;;20.70;99.90;;;;;;4893146;29;20024;-91
2022/08/27 00:31:54;;;;;;;6.13;1.88;;;20.60;99.90;;;;;;4907004;29;20032;-91
2022/08/27 00:34:21;;;;;;;4.85;1.40;;;20.70;99.90;;;;;;4914081;29;20016;-91
2022/08/27 00:36:47;;;;;;;5.32;1.30;;;20.60;99.90;;;;;;4913957;29;20411;-90
2022/08/27 00:39:13;;;;;;;3.35;1.40;;;20.50;99.90;;;;;;4913928;29;20039;-91
2022/08/27 00:41:41;;;;;;;5.05;1.40;;;20.50;99.90;;;;;;4897037;29;20488;-91
2022/08/27 00:44:08;;;;;;;2.63;1.20;;;20.50;99.90;;;;;;4913883;29;20237;-91
2022/08/27 00:46:38;;;;;;;3.35;1.42;;;20.40;99.90;;;;;;4913932;29;20115;-91
2022/08/27 00:49:18;;;;;;;5.15;1.77;;;20.50;99.90;;;;;;4913723;29;20039;-91
2022/08/27 00:51:51;;;;;;;5.55;1.27;;;20.40;99.90;;;;;;4913876;29;20164;-91
2022/08/27 00:54:17;;;;;;;3.60;1.50;;;20.50;99.90;;;;;;4913955;29;20066;-91
2022/08/27 00:56:44;;;;;;;3.65;1.45;;;20.40;99.90;;;;;;4913608;29;20024;-91
2022/08/27 00:59:15;;;;;;;2.97;1.40;;;20.40;99.90;;;;;;4913714;29;20507;-91
2022/08/27 01:04:30;;;;;;;4.57;1.30;;;20.50;99.90;;;;;;4913828;29;20034;-91
2022/08/27 01:06:57;;;;;;;4.68;1.73;;;20.50;99.90;;;;;;4913515;29;20040;-91
2022/08/27 01:09:24;;;;;;;3.28;1.23;;;20.50;99.90;;;;;;4913397;29;20474;-91
2022/08/27 01:11:50;;;;;;;6.30;1.50;;;20.40;99.90;;;;;;4913509;29;20028;-90
2022/08/27 01:14:17;;;;;;;3.40;1.48;;;20.40;99.90;;;;;;4893903;29;20029;-90
2022/08/27 01:16:48;;;;;;;8.77;2.25;;;20.40;99.90;;;;;;4909020;29;20028;-91
2022/08/27 01:19:44;;;;;;;3.17;1.40;;;20.40;99.90;;;;;;4913562;29;20027;-91
2022/08/27 01:22:25;;;;;;;4.88;1.58;;;20.30;99.90;;;;;;4913167;29;20024;-91
2022/08/27 01:24:55;;;;;;;7.82;1.60;;;20.20;99.90;;;;;;4896358;29;20029;-90
2022/08/27 01:27:24;;;;;;;6.07;1.30;;;20.20;99.90;;;;;;4913436;29;20060;-92
2022/08/27 01:29:50;;;;;;;5.28;1.98;;;20.10;99.90;;;;;;4913514;29;20029;-90
2022/08/27 01:32:25;;;;;;;5.28;2.08;;;20.10;99.90;;;;;;4896481;29;20038;-90
2022/08/27 01:34:52;;;;;;;2.63;1.60;;;20.10;99.90;;;;;;4913307;29;20086;-90
2022/08/27 01:37:21;;;;;;;5.90;1.80;;;20.10;99.90;;;;;;4896307;29;20024;-91
2022/08/27 01:39:47;;;;;;;4.38;1.30;;;20.10;99.90;;;;;;4914779;29;20029;-90
2022/08/27 01:42:21;;;;;;;4.95;1.65;;;20.00;99.90;;;;;;4899843;29;20278;-90
2022/08/27 01:44:50;;;;;;;4.55;1.67;;;19.90;99.90;;;;;;4917019;29;20056;-91
2022/08/27 01:47:19;;;;;;;3.88;1.48;;;19.90;99.90;;;;;;4917487;29;20036;-90
2022/08/27 01:49:44;;;;;;;4.68;1.73;;;19.80;99.90;;;;;;4918455;29;20039;-90
2022/08/27 01:52:11;;;;;;;9.45;1.75;;;19.80;99.90;;;;;;4917172;29;20028;-91
2022/08/27 01:54:37;;;;;;;5.13;1.60;;;19.80;99.90;;;;;;4916921;29;20016;-91
2022/08/27 01:57:03;;;;;;;6.65;1.67;;;19.80;99.90;;;;;;4916675;29;20412;-91
2022/08/27 01:59:29;;;;;;;2.53;1.38;;;19.80;99.90;;;;;;4916525;29;20044;-92
2022/08/27 02:01:55;;;;;;;5.07;1.40;;;19.80;99.90;;;;;;4899612;29;20060;-91
2022/08/27 02:04:22;;;;;;;3.53;1.40;;;19.70;99.90;;;;;;4916791;29;20426;-91
2022/08/27 02:06:48;;;;;;;4.20;1.73;;;19.70;99.90;;;;;;4899689;29;20047;-90
2022/08/27 02:09:14;;;;;;;5.20;1.48;;;19.70;99.90;;;;;;4916742;29;20032;-91
2022/08/27 02:11:40;;;;;;;5.75;1.50;;;19.70;99.90;;;;;;4916218;29;20040;-91
2022/08/27 02:14:05;;;;;;;4.28;1.65;;;19.70;99.90;;;;;;4916357;29;20020;-91
2022/08/27 02:16:31;;;;;;;5.47;1.35;;;19.70;99.90;;;;;;4916220;29;20039;-91
2022/08/27 02:18:58;;;;;;;8.40;1.67;;;19.70;99.90;;;;;;4916364;29;20024;-90
2022/08/27 02:21:24;;;;;;;7.72;1.70;;;19.60;99.90;;;;;;4899348;29;20028;-91
2022/08/27 02:23:50;;;;;;;6.55;2.10;;;19.60;99.90;;;;;;4916276;29;20600;-90
2022/08/27 02:26:16;;;;;;;4.35;1.60;;;19.60;99.90;;;;;;4916258;29;20210;-91
2022/08/27 02:28:42;;;;;;;4.15;1.45;;;19.70;99.90;;;;;;4916102;29;20032;-91
2022/08/27 02:31:09;;;;;;;6.18;1.98;;;19.70;99.90;;;;;;4916257;29;20477;-90
2022/08/27 02:33:35;;;;;;;6.60;1.70;;;19.60;99.90;;;;;;4898862;29;20043;-90
2022/08/27 02:36:01;;;;;;;7.45;1.63;;;19.60;99.90;;;;;;4916038;29;20020;-91
2022/08/27 02:38:28;;;;;;;4.30;1.48;;;19.50;99.90;;;;;;4915934;29;20024;-90
2022/08/27 02:40:53;;;;;;;8.38;2.28;;;19.50;99.90;;;;;;4915925;29;20019;-91
2022/08/27 02:43:19;;;;;;;5.68;1.52;;;19.40;99.90;;;;;;4899027;29;20536;-90
2022/08/27 02:45:45;;;;;;;5.85;1.58;;;19.40;99.90;;;;;;4915937;29;20028;-90
2022/08/27 02:48:10;;;;;;;8.25;2.03;;;19.40;99.90;;;;;;4915865;29;20059;-91
2022/08/27 02:50:36;;;;;;;6.50;1.88;;;19.40;99.90;;;;;;4897670;29;20039;-90
2022/08/27 02:53:05;;;;;;;6.07;1.52;;;19.40;99.90;;;;;;4915512;29;20028;-90
2022/08/27 02:55:31;;;;;;;4.25;1.35;;;19.40;99.90;;;;;;4915771;29;20028;-90
2022/08/27 02:57:57;;;;;;;6.15;1.60;;;19.40;99.90;;;;;;4898845;29;20441;-92
2022/08/27 03:00:24;;;;;;;6.47;1.38;;;19.30;99.90;;;;;;4899006;29;20140;-91
2022/08/27 03:02:50;;;;;;;6.35;1.40;;;19.40;99.90;;;;;;4915716;29;20028;-90
2022/08/27 03:05:17;;;;;;;5.15;1.80;;;19.30;99.90;;;;;;4915847;29;20052;-90
2022/08/27 03:07:43;;;;;;;4.82;1.98;;;19.30;99.90;;;;;;4915591;29;20037;-91
2022/08/27 03:10:12;;;;;;;6.18;2.25;;;19.30;99.90;;;;;;4894997;29;20626;-92
2022/08/27 03:12:38;;;;;;;5.60;1.90;;;19.30;99.90;;;;;;4906605;29;20029;-91
2022/08/27 03:15:06;;;;;;;8.18;2.40;;;19.20;99.90;;;;;;4915394;29;20333;-90
2022/08/27 03:20:17;;;;;;;9.82;3.10;;;19.20;99.90;;;;;;4915722;29;20031;-91
2022/08/27 03:22:43;;;;;;;11.35;2.88;;;19.20;99.90;;;;;;4915810;29;20123;-90
2022/08/27 03:25:09;;;;;;;12.77;2.70;;;19.10;99.90;;;;;;4930208;29;20024;-90
2022/08/27 03:27:35;;;;;;;8.63;3.10;;;19.10;99.90;;;;;;4916836;29;20055;-91
2022/08/27 03:30:04;;;;;;;7.70;2.83;;;19.00;99.90;;;;;;4902954;29;20032;-91
2022/08/27 03:32:30;;;;;;;9.43;3.17;;;18.90;99.90;;;;;;4894843;29;20056;-91
2022/08/27 03:34:57;;;;;;;8.57;2.78;;;18.90;99.90;;;;;;4908016;29;20024;-91
2022/08/27 03:37:23;;;;;;;9.95;3.13;;;18.90;99.90;;;;;;4915113;29;20035;-91
2022/08/27 03:39:48;;;;;;;9.27;3.40;;;18.90;99.90;;;;;;4898300;29;20024;-90
2022/08/27 03:42:14;;;;;;;9.80;3.58;;;18.90;99.90;;;;;;4897864;29;20035;-92
2022/08/27 03:44:40;;;;;;;8.68;3.33;;;18.90;99.90;;;;;;4915042;29;20027;-90
2022/08/27 03:47:05;;;;;;;9.38;3.10;;;18.90;99.90;;;;;;4914692;29;20028;-91
2022/08/27 03:49:31;;;;;;;6.63;2.95;;;18.90;99.90;;;;;;4914775;29;20107;-90
2022/08/27 03:51:57;;;;;;;6.70;3.03;;;18.80;99.90;;;;;;4886114;29;20037;-90
2022/08/27 03:54:23;;;;;;;6.75;2.92;;;18.90;99.90;;;;;;4913400;29;20088;-91
2022/08/27 03:56:50;;;;;;;7.22;3.20;;;18.90;99.90;;;;;;4897547;29;20067;-90
2022/08/27 03:59:16;;;;;;;12.63;4.20;;;18.90;99.90;;;;;;4915068;29;20099;-89
2022/08/27 04:01:42;;;;;;;14.77;5.22;;;18.80;99.90;;;;;;4897558;29;20120;-90
2022/08/27 04:04:08;;;;;;;7.28;3.97;;;18.80;99.90;;;;;;4914365;29;20107;-90
2022/08/27 04:06:34;;;;;;;7.65;3.42;;;18.90;99.90;;;;;;4914095;29;20067;-90
2022/08/27 04:09:00;;;;;;;8.23;3.50;;;18.90;99.90;;;;;;4897310;29;20021;-91
2022/08/27 04:11:27;;;;;;;8.73;2.97;;;18.90;99.90;;;;;;4914402;29;20051;-91
2022/08/27 04:13:53;;;;;;;9.65;3.03;;;18.90;99.90;;;;;;4914365;29;20039;-90
2022/08/27 04:16:19;;;;;;;6.85;3.40;;;18.90;99.90;;;;;;4897518;29;20056;-90
2022/08/27 04:18:45;;;;;;;10.38;3.92;;;18.90;99.90;;;;;;4914208;29;20032;-91
2022/08/27 04:21:12;;;;;;;7.97;3.60;;;18.90;99.90;;;;;;4914244;29;20055;-90
2022/08/27 04:23:39;;;;;;;9.95;4.10;;;18.90;99.90;;;;;;4914192;29;20607;-90
2022/08/27 04:26:07;;;;;;;9.52;4.03;;;18.80;99.90;;;;;;4914284;29;20051;-90
2022/08/27 04:28:33;;;;;;;8.23;3.20;;;18.80;99.90;;;;;;4913999;29;20062;-91
2022/08/27 04:31:01;;;;;;;10.32;3.78;;;18.80;99.90;;;;;;4897232;29;20083;-90
2022/08/27 04:33:27;;;;;;;9.85;3.33;;;18.80;99.90;;;;;;4914052;29;20095;-90
2022/08/27 04:36:05;;;;;;;6.53;2.90;;;18.70;99.90;;;;;;4914400;29;20024;-91
2022/08/27 04:38:31;;;;;;;8.07;2.75;;;18.80;99.90;;;;;;4913680;29;20393;-90
2022/08/27 04:43:41;;;;;;;10.63;2.88;;;18.70;99.90;;;;;;4918322;29;20058;-90
2022/08/27 04:46:07;;;;;;;9.05;3.08;;;18.70;99.90;;;;;;4914694;29;20478;-90
2022/08/27 04:48:34;;;;;;;13.07;3.22;;;18.70;99.90;;;;;;4914188;29;20035;-91
2022/08/27 04:50:59;;;;;;;6.20;2.78;;;18.70;99.90;;;;;;4913733;29;20020;-90
2022/08/27 04:53:25;;;;;;;9.60;3.55;;;18.60;99.90;;;;;;4913859;29;20043;-91
2022/08/27 04:55:55;;;;;;;7.35;3.08;;;18.60;99.90;;;;;;4896484;29;20039;-90
2022/08/27 04:58:22;;;;;;;6.15;3.40;;;18.60;99.90;;;;;;4896682;29;20032;-90
2022/08/27 05:00:50;;;;;;;10.05;4.13;;;18.50;99.90;;;;;;4913444;29;20024;-91
2022/08/27 05:03:18;;;;;;;11.55;3.15;;;18.50;99.90;;;;;;4913594;29;20079;-90
2022/08/27 05:05:46;;;;;;;8.30;3.53;;;18.50;99.90;;;;;;4913557;29;20048;-91
2022/08/27 05:08:12;;;;;;;8.85;4.20;;;18.50;99.90;;;;;;4895565;29;20438;-91
2022/08/27 05:10:43;;;;;;;7.35;3.88;;;18.50;99.90;;;;;;4896725;29;20028;-90
2022/08/27 05:13:09;;;;;;;8.68;4.20;;;18.40;99.90;;;;;;4912097;29;20488;-90
2022/08/27 05:15:35;;;;;;;8.82;3.97;;;18.50;99.90;;;;;;4899460;29;20031;-90
2022/08/27 05:18:01;;;;;;;9.85;4.10;;;18.50;99.90;;;;;;4917374;29;20040;-90
2022/08/27 05:20:28;;;;;;;5.78;3.83;;;18.50;99.90;;;;;;4917051;29;20520;-90
2022/08/27 05:22:54;;;;;;;9.93;4.03;;;18.50;99.90;;;;;;4916880;29;20111;-91
2022/08/27 05:25:21;;;;;;;16.17;4.00;;;18.50;99.90;;;;;;4916905;29;20157;-90
2022/08/27 05:27:47;;;;;;;9.90;3.42;;;18.50;99.90;;;;;;4917291;29;20036;-90
2022/08/27 05:30:13;;;;;;;9.35;3.72;;;18.50;99.90;;;;;;4917473;29;20386;-90
2022/08/27 05:32:38;;;;;;;10.75;3.53;;;18.50;99.90;;;;;;4917117;29;20599;-91
2022/08/27 05:35:05;;;;;;;7.35;3.00;;;18.50;99.90;;;;;;4900186;29;20024;-91
2022/08/27 05:37:32;;;;;;;6.25;3.17;;;18.50;99.90;;;;;;4918856;29;20024;-92
2022/08/27 05:39:59;;;;;;;8.23;3.40;;;18.50;99.90;;;;;;4901521;29;20449;-93
2022/08/27 05:42:25;;;;;;;8.57;3.63;;;18.60;99.90;;;;;;4900276;29;20027;-91
2022/08/27 05:44:51;;;;;;;7.90;3.10;;;18.60;99.90;;;;;;4917246;29;20380;-91
2022/08/27 05:47:17;;;;;;;6.47;2.67;;;18.60;99.90;;;;;;4917097;29;20102;-90
2022/08/27 05:49:44;;;;;;;7.68;3.13;;;18.70;99.90;;;;;;4915828;29;20599;-90
2022/08/27 05:52:10;;;;;;;9.43;3.95;;;18.70;99.90;;;;;;4916682;29;20043;-90
2022/08/27 05:54:37;;;;;;;9.35;3.30;;;18.70;99.90;;;;;;4916723;29;20529;-90
2022/08/27 05:57:03;;;;;;;4.45;2.80;;;18.80;99.90;;;;;;4920879;29;20332;-92
2022/08/27 06:02:13;;;;;;;7.68;3.33;;;18.80;99.90;;;;;;4921377;29;20123;-90
2022/08/27 06:04:39;;;;;;;8.15;3.00;;;18.90;99.90;;;;;;4916991;29;20131;-90
2022/08/27 06:07:08;;;;;;;7.05;3.45;;;18.90;99.90;;;;;;4918955;29;20087;-90
2022/08/27 06:09:33;;;;;;;4.43;2.92;;;18.90;99.90;;;;;;4917685;29;20020;-90
2022/08/27 06:11:59;;;;;;;6.65;3.25;;;19.00;99.90;;;;;;4918278;29;20124;-90
2022/08/27 06:14:25;;;;;;;10.77;3.20;;;18.90;99.90;;;;;;4927748;29;20035;-90
2022/08/27 06:16:51;;;;;;;7.03;2.90;;;19.00;99.90;;;;;;4927550;29;20036;-91
2022/08/27 06:19:17;;;;;;;6.80;3.50;;;19.10;99.90;;;;;;4927498;29;20028;-90
2022/08/27 06:21:43;;;;;;;5.25;2.65;;;19.10;99.90;;;;;;4923552;29;20018;-90
2022/08/27 06:24:11;;;;;;;6.70;3.22;;;19.10;99.90;;;;;;4909892;29;20030;-91
2022/08/27 06:26:38;;;;;;;5.40;2.88;;;19.20;99.90;;;;;;4927474;29;20019;-90
2022/08/27 06:29:06;;;;;;;6.22;2.58;;;19.20;99.90;;;;;;4927423;29;20027;-90
2022/08/27 06:31:33;;;;;;;7.10;3.28;;;19.20;99.90;;;;;;4910170;29;20012;-92
2022/08/27 06:34:01;;;;;;;7.80;2.83;;;19.20;99.90;;;;;;4927298;29;20012;-91
2022/08/27 06:36:28;;;;;;;4.63;2.72;;;19.30;99.90;;;;;;4907672;29;20019;-91
2022/08/27 06:38:56;;;;;;;7.10;2.88;;;19.40;99.90;;;;;;4927160;29;20359;-90
2022/08/27 06:41:25;;;;;;;7.63;2.97;;;19.40;99.90;;;;;;4927287;29;20051;-93
2022/08/27 06:43:52;;;;;;;6.25;2.28;;;19.40;99.90;;;;;;4925043;29;20016;-91
2022/08/27 06:46:21;;;;;;;5.72;2.67;;;19.50;99.90;;;;;;4927103;29;20020;-90
2022/08/27 06:48:51;;;;;;;4.25;2.28;;;19.60;99.90;;;;;;4924575;29;20232;-90
2022/08/27 06:51:29;;;;;;;6.80;2.60;;;19.60;99.90;;;;;;4910411;29;20316;-92
2022/08/27 06:53:57;;;;;;;10.27;2.70;;;19.60;99.90;;;;;;4910210;29;20035;-91
2022/08/27 06:56:23;;;;;;;4.20;2.08;;;19.70;99.90;;;;;;4926331;29;20016;-90
2022/08/27 06:58:57;;;;;;;4.30;2.45;;;19.70;99.90;;;;;;4911243;29;20024;-91
2022/08/27 07:01:32;;;;;;;3.97;2.13;;;19.70;99.90;;;;;;4926321;29;20024;-91
2022/08/27 07:04:00;;;;;;;6.00;2.60;;;19.80;99.90;;;;;;4910080;29;20035;-91
2022/08/27 07:06:28;;;;;;;5.03;2.70;;;19.70;99.90;;;;;;4908845;29;20078;-92
2022/08/27 07:08:55;;;;;;;6.80;2.30;;;19.80;99.90;;;;;;4923181;29;20067;-90
2022/08/27 07:11:21;;;;;;;5.38;2.55;;;19.90;99.90;;;;;;4898211;29;20386;-90
2022/08/27 07:13:48;;;;;;;6.15;2.47;;;20.00;99.90;;;;;;4897648;29;20059;-93
2022/08/27 07:16:16;;;;;;;5.25;2.40;;;19.90;99.90;;;;;;4898654;29;20401;-92
2022/08/27 07:18:42;;;;;;;3.92;2.20;;;20.00;99.90;;;;;;4898539;29;20090;-90
2022/08/27 07:21:08;;;;;;;4.90;2.33;;;20.00;99.90;;;;;;4915605;29;20477;-91
2022/08/27 07:23:36;;;;;;;4.35;2.30;;;20.10;99.90;;;;;;4912249;29;20113;-89
2022/08/27 07:26:07;;;;;;;6.32;2.72;;;20.10;99.90;;;;;;4915455;29;20056;-90
2022/08/27 07:28:33;;;;;;;11.40;2.70;;;20.10;99.90;;;;;;4914973;29;20028;-90
2022/08/27 07:30:58;;;;;;;4.63;2.33;;;20.10;99.90;;;;;;4915085;29;20496;-91
2022/08/27 07:33:24;;;;;;;7.20;2.78;;;20.20;99.90;;;;;;4915027;29;20512;-91
2022/08/27 07:35:50;;;;;;;4.60;2.60;;;20.30;99.90;;;;;;4915604;29;20454;-92
2022/08/27 07:38:17;;;;;;;4.97;2.40;;;20.40;99.90;;;;;;4914486;29;20032;-90
2022/08/27 07:40:42;;;;;;;5.82;2.40;;;20.40;99.90;;;;;;4915098;29;20020;-92
2022/08/27 07:45:55;;;;;;;;;;;20.50;99.90;;;;;;4915434;29;20060;-90
2022/08/27 07:48:22;;;;;;;4.10;2.10;;;20.50;99.90;;;;;;4913798;29;19917;-91
2022/08/27 07:50:49;;;;;;;5.60;2.40;;;20.50;99.90;;;;;;4915092;29;20024;-92
2022/08/27 07:53:14;;;;;;;3.78;1.80;;;20.50;99.90;;;;;;4914640;29;20036;-91
2022/08/27 07:55:40;;;;;;;4.68;2.15;;;20.60;99.90;;;;;;4917069;29;20441;-92
2022/08/27 08:02:19;;;;;;;4.35;2.10;;;20.80;99.90;;;;;;4847854;29;20439;-96
2022/08/27 08:09:21;;;;;;;10.05;2.38;;;21.00;99.90;;;;;;4823744;29;20047;-95
2022/08/27 08:11:47;;;;;;;4.80;2.00;;;21.10;99.90;;;;;;4777450;29;20065;-88
2022/08/27 08:14:13;;;;;;;7.93;2.05;;;21.50;99.90;;;;;;4853514;29;20515;-90
2022/08/27 08:16:39;;;;;;;6.00;2.00;;;21.70;99.90;;;;;;4908505;29;20040;-88
2022/08/27 08:19:05;;;;;;;5.03;1.77;;;21.90;99.90;;;;;;4914947;29;20020;-90
2022/08/27 08:21:30;;;;;;;4.90;2.20;;;22.00;99.90;;;;;;4916193;29;20084;-92
2022/08/27 08:24:01;;;;;;;6.35;1.70;;;22.10;99.90;;;;;;4899348;29;20026;-92
2022/08/27 08:26:30;;;;;;;25.42;3.33;;;22.30;99.90;;;;;;4903758;29;20039;-93
2022/08/27 08:28:59;;;;;;;4.60;1.85;;;22.50;99.90;;;;;;4928988;29;20064;-91
2022/08/27 08:31:31;;;;;;;9.95;2.15;;;22.70;99.90;;;;;;4968691;23;20187;-93
2022/08/27 08:33:57;;;;;;;7.10;2.80;;;22.80;99.90;;;;;;4916007;29;20067;-94
2022/08/27 08:36:28;;;;;;;6.75;2.40;;;22.90;99.90;;;;;;4915366;29;20028;-92
2022/08/27 08:38:59;;;;;;;6.93;2.00;;;23.00;99.90;;;;;;4918944;29;20084;-93
2022/08/27 08:48:41;;;;;;;5.80;1.70;;;23.50;99.90;;;;;;745400;23;21245;-90
2022/08/27 08:51:42;;;;;;;6.45;1.83;;;23.50;99.90;;;;;;4909769;29;20552;-92
2022/08/27 08:58:34;;;;;;;8.05;1.92;;;23.50;99.90;;;;;;4873181;29;20064;-93
2022/08/27 09:05:04;;;;;;;6.20;1.90;;;23.80;99.90;;;;;;4844570;29;20039;-95
2022/08/27 09:13:57;;;;;;;8.70;1.90;;;24.30;99.50;;;;;;4910774;29;20046;-93
2022/08/27 09:16:37;;;;;;;4.13;1.63;;;24.40;99.20;;;;;;4911935;29;20032;-92
2022/08/27 09:19:05;;;;;;;3.58;1.45;;;24.50;99.40;;;;;;4902898;29;20043;-90
2022/08/27 09:22:00;;;;;;;5.78;1.63;;;24.60;99.20;;;;;;4921319;29;20036;-93
2022/08/27 09:25:06;;;;;;;5.57;2.03;;;24.80;99.20;;;;;;4924609;29;20076;-92
2022/08/27 09:27:54;;;;;;;5.82;1.80;;;25.00;98.80;;;;;;4904642;29;20028;-93
2022/08/27 09:30:46;;;;;;;3.00;1.50;;;25.10;98.40;;;;;;4904947;29;20119;-93
2022/08/27 09:33:24;;;;;;;5.70;1.45;;;25.10;98.40;;;;;;4923275;29;20048;-92
2022/08/27 09:35:53;;;;;;;6.70;1.77;;;25.10;98.40;;;;;;4904230;29;20036;-90
2022/08/27 09:39:23;;;;;;;6.85;1.90;;;25.10;98.40;;;;;;4916729;29;20075;-94
2022/08/27 09:42:05;;;;;;;2.60;1.48;;;25.30;98.40;;;;;;4850237;29;20032;-94
2022/08/27 09:44:31;;;;;;;6.18;1.80;;;25.70;98.10;;;;;;4900570;29;20028;-92
2022/08/27 09:47:02;;;;;;;3.10;1.50;;;25.90;97.80;;;;;;4915235;29;20040;-96
2022/08/27 09:49:30;;;;;;;6.88;1.67;;;25.90;97.70;;;;;;4916363;29;20028;-94
2022/08/27 09:52:32;;;;;;;13.30;1.85;;;26.00;97.70;;;;;;4918918;29;20071;-95
2022/08/27 09:54:58;;;;;;;6.82;1.90;;;26.10;97.40;;;;;;4916542;29;20493;-92
2022/08/27 09:57:39;;;;;;;4.30;1.65;;;26.20;97.40;;;;;;4899734;29;20039;-95
2022/08/27 10:00:35;;;;;;;6.53;1.95;;;26.40;97.30;;;;;;4898984;29;20127;-92
2022/08/27 10:03:10;;;;;;;4.03;1.85;;;26.50;97.10;;;;;;4925567;29;20052;-94
2022/08/27 10:05:52;;;;;;;2.85;1.60;;;26.80;97.10;;;;;;4910245;29;20040;-94
2022/08/27 10:08:22;;;;;;;2.90;1.92;;;26.90;96.40;;;;;;4901313;29;20024;-94
2022/08/27 10:10:58;;;;;;;4.25;1.58;;;27.00;96.20;;;;;;4901733;29;20032;-93
2022/08/27 10:13:36;;;;;;;6.43;2.15;;;26.90;96.10;;;;;;4917651;29;20560;-92
2022/08/27 10:16:09;;;;;;;6.63;2.00;;;27.00;95.90;;;;;;4902158;29;20024;-93
2022/08/27 10:18:56;;;;;;;3.47;1.67;;;27.00;95.90;;;;;;4903928;29;20578;-92
2022/08/27 10:21:31;;;;;;;12.80;4.20;;;27.10;95.80;;;;;;4901772;29;20055;-92
2022/08/27 10:24:28;;;;;;;8.48;2.42;;;27.10;95.90;;;;;;4901688;29;20032;-93
2022/08/27 10:40:30;;;;;;;2.65;1.40;;;27.70;95.30;;;;;;5585148;23;20067;-95
2022/08/27 10:57:32;;;;;;;;;;;;;;;;;;;;;
2022/08/27 11:00:22;;;;;;;5.35;1.40;;;27.90;94.30;;;;;;4917800;29;20520;-94
2022/08/27 11:03:02;;;;;;;2.90;1.30;;;28.00;94.10;;;;;;4914148;29;20036;-95
2022/08/27 11:05:35;;;;;;;2.58;1.30;;;28.00;93.30;;;;;;4916558;29;20059;-94
2022/08/27 11:08:52;;;;;;;;;;;;;;;;;;;;;
2022/08/27 11:17:26;;;;;;;1.95;1.00;;;28.20;93.50;;;;;;5762549;23;20052;-95
2022/08/27 11:20:00;;;;;;;2.28;1.52;;;28.40;93.20;;;;;;4917208;29;20036;-91
2022/08/27 11:22:37;;;;;;;3.72;1.33;;;28.70;92.70;;;;;;4925397;29;20040;-91
2022/08/27 11:25:23;;;;;;;4.43;1.40;;;29.00;92.50;;;;;;4924502;29;20050;-89
2022/08/27 11:28:08;;;;;;;5.25;1.25;;;29.10;91.60;;;;;;4918272;29;20036;-90
2022/08/27 11:31:06;;;;;;;1.38;1.00;;;29.30;92.10;;;;;;4923495;29;20504;-90
2022/08/27 11:33:43;;;;;;;2.30;1.25;;;29.60;92.40;;;;;;4919893;29;20056;-90
2022/08/27 11:36:49;;;;;;;2.38;1.00;;;29.70;91.40;;;;;;4926658;29;20004;-89
2022/08/27 11:39:33;;;;;;;1.80;1.00;;;30.10;91.00;;;;;;4906886;29;20101;-90
2022/08/27 11:42:17;;;;;;;2.00;1.10;;;30.50;90.90;;;;;;4886560;29;20096;-90
2022/08/27 11:44:43;;;;;;;;;;;30.60;91.20;;;;;;4915142;29;20032;-89
2022/08/27 11:47:20;;;;;;;2.50;1.50;;;30.30;90.50;;;;;;4925413;29;19974;-89
2022/08/27 11:49:54;;;;;;;3.28;1.30;;;30.10;91.30;;;;;;4921679;29;20016;-90
2022/08/27 11:52:42;;;;;;;4.60;1.20;;;30.10;91.60;;;;;;4920805;29;20028;-90
2022/08/27 11:55:20;;;;;;;3.33;0.88;;;29.90;91.30;;;;;;4924765;29;20111;-90
2022/08/27 11:57:48;;;;;;;2.25;1.10;;;29.80;91.50;;;;;;4923153;29;20402;-90
2022/08/27 12:00:25;;;;;;;2.25;1.25;;;30.00;91.00;;;;;;4926913;29;20028;-88
2022/08/27 12:02:59;;;;;;;2.50;1.40;;;30.10;91.20;;;;;;4917327;29;20154;-89
2022/08/27 12:05:36;;;;;;;1.00;0.90;;;30.30;90.70;;;;;;4920627;29;20036;-89
2022/08/27 12:08:29;;;;;;;2.47;1.00;;;30.30;90.00;;;;;;4921235;29;20024;-89
2022/08/27 12:11:16;;;;;;;3.08;1.05;;;30.30;90.40;;;;;;4916675;29;20040;-90
2022/08/27 12:14:07;;;;;;;1.42;1.00;;;30.30;91.00;;;;;;4918161;29;20040;-90
2022/08/27 12:17:00;;;;;;;2.47;1.10;;;30.80;91.40;;;;;;4919826;29;20587;-89
2022/08/27 12:19:53;;;;;;;2.65;1.00;;;31.10;90.70;;;;;;4917412;29;20405;-90
2022/08/27 12:22:31;;;;;;;1.23;1.00;;;31.10;90.80;;;;;;4923110;29;20050;-91
2022/08/27 12:24:58;;;;;;;3.20;1.00;;;30.90;90.50;;;;;;4924898;29;20035;-90
2022/08/27 12:27:40;;;;;;;1.58;1.15;;;30.70;90.80;;;;;;4925467;29;20020;-94
2022/08/27 12:30:18;;;;;;;1.67;1.20;;;30.40;91.20;;;;;;4926471;29;20063;-92
2022/08/27 12:32:47;;;;;;;2.30;0.90;;;30.20;91.20;;;;;;4925174;29;20354;-91
2022/08/27 12:35:13;;;;;;;3.17;1.30;;;30.10;91.20;;;;;;4927888;29;20032;-90
2022/08/27 12:37:49;;;;;;;3.30;0.90;;;30.20;91.40;;;;;;4926115;29;20391;-93
2022/08/27 12:40:28;;;;;;;2.90;1.00;;;30.50;91.00;;;;;;4908798;29;20319;-91
2022/08/27 12:43:19;;;;;;;2.58;1.10;;;31.00;90.10;;;;;;4907957;29;20016;-92
2022/08/27 12:45:55;;;;;;;1.50;1.10;;;31.40;90.10;;;;;;4925599;29;20031;-94
2022/08/27 12:48:37;;;;;;;1.80;1.08;;;31.60;88.50;;;;;;4924621;29;20032;-92
2022/08/27 12:51:07;;;;;;;3.38;1.00;;;31.50;88.00;;;;;;4926534;29;20031;-95
2022/08/27 12:53:39;;;;;;;3.33;1.00;;;31.70;86.40;;;;;;4925522;29;20032;-91
2022/08/27 12:56:38;;;;;;;1.75;1.05;;;32.00;87.10;;;;;;4926242;29;20027;-94
2022/08/27 12:59:31;;;;;;;3.40;1.00;;;32.30;87.50;;;;;;4919397;29;20059;-92
2022/08/27 13:16:30;;;;;;;2.30;1.13;;;30.40;88.00;;;;;;4796210;29;20046;-92
2022/08/27 13:18:59;;;;;;;1.85;1.15;;;30.20;87.70;;;;;;4790759;29;20031;-92
2022/08/27 13:21:32;;;;;;;1.95;1.20;;;29.90;88.00;;;;;;4798263;29;20039;-93
2022/08/27 13:24:02;;;;;;;1.77;0.90;;;30.00;87.30;;;;;;4850968;29;20553;-91
2022/08/27 13:26:40;;;;;;;3.35;1.40;;;30.50;86.20;;;;;;4927856;29;20040;-93
2022/08/27 13:29:07;;;;;;;5.00;1.40;;;30.90;91.40;;;;;;4924449;29;20008;-91
2022/08/27 13:31:34;;;;;;;3.40;1.60;;;30.70;92.00;;;;;;4918533;29;20032;-92
2022/08/27 13:34:08;;;;;;;3.50;1.60;;;30.40;92.40;;;;;;4924564;29;20571;-91
2022/08/27 13:36:50;;;;;;;1.80;1.30;;;30.40;92.40;;;;;;4926947;29;20091;-96
2022/08/27 13:39:20;;;;;;;2.15;1.30;;;30.20;92.50;;;;;;4912560;29;20016;-91
2022/08/27 13:41:47;;;;;;;5.60;1.90;;;30.50;92.40;;;;;;4919071;29;20060;-91
2022/08/27 13:44:20;;;;;;;4.13;1.75;;;30.40;92.20;;;;;;4924728;29;20041;-93
2022/08/27 13:47:07;;;;;;;4.47;1.75;;;29.90;92.70;;;;;;4911404;29;20038;-92
2022/08/27 13:49:35;;;;;;;6.75;1.70;;;29.10;93.70;;;;;;4923688;29;20032;-91
2022/08/27 13:52:05;;;;;;;3.70;1.90;;;29.00;93.50;;;;;;4938750;29;20040;-91
2022/08/27 13:54:33;;;;;;;6.38;1.60;;;29.20;93.50;;;;;;4938693;29;20020;-94
2022/08/27 13:57:07;;;;;;;3.60;1.67;;;29.50;93.10;;;;;;4927346;29;20020;-92
2022/08/27 13:59:37;;;;;;;4.25;1.70;;;29.60;92.80;;;;;;4933766;23;20048;-91
2022/08/27 14:02:09;;;;;;;4.40;1.63;;;29.90;93.10;;;;;;4910101;29;20036;-93
2022/08/27 14:05:11;;;;;;;4.25;1.33;;;30.30;91.90;;;;;;4911310;29;20021;-91
2022/08/27 14:07:46;;;;;;;3.55;1.48;;;30.70;91.80;;;;;;4908392;29;20088;-91
2022/08/27 14:10:20;;;;;;;3.70;1.38;;;31.30;90.60;;;;;;4909737;29;20115;-91
2022/08/27 14:12:59;;;;;;;4.90;1.50;;;31.40;89.50;;;;;;4909711;29;20056;-90
2022/08/27 14:15:41;;;;;;;3.53;1.63;;;32.20;89.40;;;;;;4916142;29;20013;-92
2022/08/27 14:18:32;;;;;;;4.47;1.52;;;32.90;89.70;;;;;;4890941;29;20540;-96
2022/08/27 14:21:05;;;;;;;6.38;1.63;;;33.40;88.50;;;;;;4906566;29;20017;-91
2022/08/27 14:23:38;;;;;;;3.78;1.60;;;33.90;89.10;;;;;;4906991;29;20045;-91
2022/08/27 14:26:04;;;;;;;4.57;1.63;;;34.60;87.30;;;;;;4894084;29;20037;-94
2022/08/27 14:28:30;;;;;;;4.28;1.23;;;35.90;86.80;;;;;;4890875;29;20403;-92
2022/08/27 14:30:56;;;;;;;3.97;1.70;;;36.90;84.70;;;;;;4905668;29;20099;-91
2022/08/27 14:33:31;;;;;;;2.58;1.52;;;37.90;82.90;;;;;;4910448;29;20064;-91
2022/08/27 14:35:56;;;;;;;5.15;1.55;;;38.60;81.40;;;;;;4919384;29;20065;-91
2022/08/27 14:38:30;;;;;;;3.92;1.20;;;39.90;78.40;;;;;;4911491;29;20041;-91
2022/08/27 14:40:59;;;;;;;5.07;1.88;;;39.70;77.90;;;;;;4901101;29;20028;-93